createdAt,value
2022-12-01T00:01:15.243Z,58.80
2022-12-01T00:03:41.998Z,58.80
2022-12-01T00:06:17.287Z,58.80
2022-12-01T00:09:05.613Z,58.90
2022-12-01T00:11:33.761Z,58.90
2022-12-01T00:14:00.668Z,59.20
2022-12-01T00:16:27.583Z,59.60
2022-12-01T00:18:55.032Z,59.90
2022-12-01T00:21:24.027Z,60.80
2022-12-01T00:23:52.664Z,60.30
2022-12-01T00:26:20.574Z,60.50
2022-12-01T00:28:55.897Z,60.70
2022-12-01T00:31:23.568Z,61.10
2022-12-01T00:33:50.740Z,61.50
2022-12-01T00:36:17.830Z,61.80
2022-12-01T00:38:44.566Z,62.00
2022-12-01T00:41:11.327Z,62.30
2022-12-01T00:43:38.087Z,62.40
2022-12-01T00:46:05.084Z,62.60
2022-12-01T00:48:31.820Z,62.60
2022-12-01T00:50:58.505Z,62.70
2022-12-01T00:53:25.218Z,62.80
2022-12-01T00:55:54.001Z,63.10
2022-12-01T00:58:21.425Z,63.60
2022-12-01T01:00:48.554Z,63.50
2022-12-01T01:03:15.426Z,64.00
2022-12-01T01:05:43.601Z,64.50
2022-12-01T01:08:13.652Z,64.80
2022-12-01T01:10:42.442Z,64.90
2022-12-01T01:13:09.540Z,65.10
2022-12-01T01:15:36.361Z,64.80
2022-12-01T01:18:03.775Z,64.90
2022-12-01T01:20:30.992Z,65.20
2022-12-01T01:22:58.449Z,65.40
2022-12-01T01:25:25.459Z,65.30
2022-12-01T01:27:52.169Z,65.30
2022-12-01T01:30:19.038Z,65.30
2022-12-01T01:32:45.710Z,65.30
2022-12-01T01:35:12.632Z,65.30
2022-12-01T01:37:40.626Z,65.20
2022-12-01T01:40:07.994Z,65.20
2022-12-01T01:42:34.705Z,65.10
2022-12-01T01:45:01.392Z,65.10
2022-12-01T01:47:34.910Z,65.10
2022-12-01T01:50:08.436Z,65.20
2022-12-01T01:52:42.740Z,65.10
2022-12-01T01:55:10.782Z,65.00
2022-12-01T01:57:38.428Z,65.00
2022-12-01T02:00:08.784Z,64.90
2022-12-01T02:02:40.587Z,65.00
2022-12-01T02:05:13.646Z,64.90
2022-12-01T02:07:42.041Z,64.90
2022-12-01T02:10:13.147Z,64.90
2022-12-01T02:13:02.141Z,64.80
2022-12-01T02:16:00.673Z,64.70
2022-12-01T02:18:46.057Z,64.70
2022-12-01T02:21:55.726Z,64.50
2022-12-01T02:24:46.924Z,64.50
2022-12-01T02:27:25.646Z,64.60
2022-12-01T02:30:04.455Z,64.70
2022-12-01T02:32:47.990Z,64.60
2022-12-01T02:35:21.536Z,64.60
2022-12-01T02:37:57.307Z,64.70
2022-12-01T02:40:28.833Z,64.70
2022-12-01T02:43:14.080Z,64.80
2022-12-01T02:45:52.050Z,64.90
2022-12-01T02:48:30.172Z,64.80
2022-12-01T02:51:02.303Z,64.80
2022-12-01T02:53:29.352Z,64.70
2022-12-01T02:55:58.640Z,64.70
2022-12-01T02:58:25.392Z,64.70
2022-12-01T03:01:10.773Z,64.70
2022-12-01T03:04:00.628Z,64.80
2022-12-01T03:06:45.160Z,64.80
2022-12-01T03:09:27.281Z,64.80
2022-12-01T03:12:23.484Z,64.80
2022-12-01T03:15:19.803Z,64.80
2022-12-01T03:18:09.119Z,64.80
2022-12-01T03:20:47.247Z,64.80
2022-12-01T03:23:21.171Z,64.60
2022-12-01T03:25:51.801Z,64.70
2022-12-01T03:28:23.837Z,64.70
2022-12-01T03:30:55.720Z,64.70
2022-12-01T03:33:35.601Z,64.70
2022-12-01T03:36:25.076Z,65.30
2022-12-01T03:39:00.200Z,64.60
2022-12-01T03:41:35.420Z,64.70
2022-12-01T03:44:14.507Z,64.60
2022-12-01T03:46:56.441Z,64.60
2022-12-01T03:49:25.732Z,64.50
2022-12-01T03:52:16.041Z,64.60
2022-12-01T03:54:47.269Z,64.60
2022-12-01T03:57:23.415Z,64.50
2022-12-01T03:59:50.719Z,64.50
2022-12-01T04:02:18.262Z,64.50
2022-12-01T04:04:45.000Z,64.50
2022-12-01T04:07:14.883Z,64.50
2022-12-01T04:09:41.877Z,64.50
2022-12-01T04:12:29.977Z,64.40
2022-12-01T04:14:57.763Z,64.40
2022-12-01T04:17:25.858Z,64.40
2022-12-01T04:19:53.001Z,64.40
2022-12-01T04:22:20.204Z,64.40
2022-12-01T04:24:46.882Z,64.30
2022-12-01T04:27:14.001Z,64.50
2022-12-01T04:29:40.746Z,64.40
2022-12-01T04:32:07.617Z,64.40
2022-12-01T04:34:35.470Z,64.50
2022-12-01T04:37:02.356Z,64.50
2022-12-01T04:39:29.062Z,64.50
2022-12-01T04:41:55.825Z,64.40
2022-12-01T04:44:22.718Z,64.30
2022-12-01T04:46:51.486Z,64.30
2022-12-01T04:49:18.489Z,64.20
2022-12-01T04:51:45.330Z,64.20
2022-12-01T04:54:12.013Z,64.20
2022-12-01T04:56:38.698Z,64.20
2022-12-01T04:59:05.346Z,64.30
2022-12-01T05:01:32.073Z,64.40
2022-12-01T05:03:58.904Z,64.40
2022-12-01T05:06:27.208Z,64.20
2022-12-01T05:09:01.742Z,64.10
2022-12-01T05:11:30.039Z,64.00
2022-12-01T05:13:57.005Z,63.90
2022-12-01T05:16:29.295Z,63.90
2022-12-01T05:19:21.253Z,63.80
2022-12-01T05:21:49.419Z,63.80
2022-12-01T05:24:17.222Z,63.80
2022-12-01T05:26:44.402Z,63.60
2022-12-01T05:29:11.879Z,63.50
2022-12-01T05:31:39.890Z,63.40
2022-12-01T05:34:07.759Z,63.60
2022-12-01T05:36:34.426Z,63.60
2022-12-01T05:39:01.108Z,63.60
2022-12-01T05:41:27.864Z,63.60
2022-12-01T05:43:54.514Z,63.50
2022-12-01T05:46:21.229Z,63.40
2022-12-01T05:48:47.927Z,63.40
2022-12-01T05:51:16.657Z,63.50
2022-12-01T05:53:43.957Z,64.00
2022-12-01T05:56:11.219Z,63.50
2022-12-01T05:58:37.991Z,63.50
2022-12-01T06:01:05.095Z,63.50
2022-12-01T06:03:31.775Z,63.40
2022-12-01T06:05:58.485Z,63.30
2022-12-01T06:08:25.303Z,63.30
2022-12-01T06:10:52.058Z,63.10
2022-12-01T06:13:18.743Z,63.00
2022-12-01T06:15:45.562Z,62.70
2022-12-01T06:18:12.241Z,62.60
2022-12-01T06:20:39.054Z,62.40
2022-12-01T06:23:05.911Z,62.40
2022-12-01T06:25:32.578Z,63.20
2022-12-01T06:27:59.725Z,65.00
2022-12-01T06:30:26.769Z,64.60
2022-12-01T06:32:53.580Z,64.00
2022-12-01T06:35:20.686Z,62.50
2022-12-01T06:37:47.621Z,60.80
2022-12-01T06:40:14.521Z,59.80
2022-12-01T06:42:41.254Z,59.10
2022-12-01T06:45:08.554Z,58.30
2022-12-01T06:47:35.238Z,57.60
2022-12-01T06:50:02.530Z,57.00
2022-12-01T06:52:29.259Z,56.50
2022-12-01T06:54:55.950Z,56.00
2022-12-01T06:57:22.791Z,55.70
2022-12-01T06:59:49.980Z,54.80
2022-12-01T07:02:17.649Z,54.20
2022-12-01T07:04:44.397Z,53.90
2022-12-01T07:07:12.211Z,53.80
2022-12-01T07:09:39.284Z,53.90
2022-12-01T07:12:08.118Z,53.80
2022-12-01T07:14:34.852Z,53.60
2022-12-01T07:17:01.649Z,54.20
2022-12-01T07:19:28.509Z,54.40
2022-12-01T07:21:55.236Z,54.60
2022-12-01T07:24:21.984Z,55.00
2022-12-01T07:26:48.713Z,55.30
2022-12-01T07:29:15.408Z,55.50
2022-12-01T07:31:42.109Z,55.70
2022-12-01T07:34:12.250Z,55.70
2022-12-01T07:36:39.202Z,55.80
2022-12-01T07:39:07.572Z,56.10
2022-12-01T07:41:35.546Z,56.40
2022-12-01T07:44:03.015Z,56.70
2022-12-01T07:46:30.254Z,57.10
2022-12-01T07:48:57.873Z,57.20
2022-12-01T07:51:26.289Z,57.30
2022-12-01T07:53:54.347Z,57.30
2022-12-01T07:56:22.641Z,57.30
2022-12-01T07:58:49.577Z,57.20
2022-12-01T08:01:19.702Z,57.40
2022-12-01T08:03:52.277Z,57.50
2022-12-01T08:06:19.920Z,58.00
2022-12-01T08:08:47.387Z,58.20
2022-12-01T08:11:20.802Z,58.50
2022-12-01T08:13:48.223Z,58.80
2022-12-01T08:16:17.742Z,58.60
2022-12-01T08:18:44.944Z,58.70
2022-12-01T08:21:14.257Z,58.90
2022-12-01T08:23:42.161Z,59.10
2022-12-01T08:26:18.902Z,59.30
2022-12-01T08:28:46.576Z,59.70
2022-12-01T08:31:25.213Z,60.00
2022-12-01T08:33:52.181Z,60.30
2022-12-01T08:36:20.552Z,60.00
2022-12-01T08:38:49.578Z,60.30
2022-12-01T08:41:17.151Z,60.80
2022-12-01T08:44:00.959Z,60.90
2022-12-01T08:46:34.560Z,61.20
2022-12-01T08:49:02.478Z,61.60
2022-12-01T08:51:29.497Z,61.80
2022-12-01T08:53:58.111Z,62.00
2022-12-01T08:56:33.251Z,62.30
2022-12-01T08:59:00.441Z,62.50
2022-12-01T09:01:27.650Z,62.50
2022-12-01T09:04:06.545Z,62.60
2022-12-01T09:06:37.682Z,62.70
2022-12-01T09:09:04.593Z,62.80
2022-12-01T09:11:31.309Z,62.80
2022-12-01T09:14:00.597Z,62.90
2022-12-01T09:16:27.480Z,63.10
2022-12-01T09:18:55.520Z,63.10
2022-12-01T09:21:27.545Z,63.20
2022-12-01T09:23:54.795Z,63.30
2022-12-01T09:26:22.024Z,63.90
2022-12-01T09:28:52.673Z,63.30
2022-12-01T09:31:20.750Z,63.40
2022-12-01T09:33:47.489Z,63.50
2022-12-01T09:36:14.196Z,63.50
2022-12-01T09:38:41.023Z,63.60
2022-12-01T09:41:30.697Z,63.70
2022-12-01T09:44:17.220Z,64.00
2022-12-01T09:46:50.054Z,64.20
2022-12-01T09:49:24.533Z,64.00
2022-12-01T09:51:54.219Z,64.10
2022-12-01T09:54:21.314Z,64.10
2022-12-01T09:56:52.904Z,64.10
2022-12-01T09:59:33.263Z,64.20
2022-12-01T10:02:03.205Z,64.20
2022-12-01T10:04:36.626Z,64.20
2022-12-01T10:07:24.277Z,64.90
2022-12-01T10:10:01.037Z,64.40
2022-12-01T10:12:33.734Z,64.30
2022-12-01T10:15:30.229Z,64.50
2022-12-01T10:18:32.425Z,64.40
2022-12-01T10:21:14.746Z,64.30
2022-12-01T10:23:53.483Z,64.40
2022-12-01T10:26:26.526Z,64.40
2022-12-01T10:29:11.356Z,64.30
2022-12-01T10:31:46.308Z,64.20
2022-12-01T10:34:17.325Z,64.00
2022-12-01T10:36:44.296Z,64.10
2022-12-01T10:39:34.058Z,64.10
2022-12-01T10:42:13.491Z,64.40
2022-12-01T10:44:40.783Z,64.20
2022-12-01T10:47:26.647Z,64.20
2022-12-01T10:49:53.621Z,64.50
2022-12-01T10:52:41.672Z,64.50
2022-12-01T10:55:36.664Z,64.40
2022-12-01T10:58:13.306Z,64.30
2022-12-01T11:00:59.033Z,64.40
2022-12-01T11:03:30.144Z,64.20
2022-12-01T11:06:00.066Z,63.80
2022-12-01T11:08:43.682Z,63.40
2022-12-01T11:11:33.056Z,63.20
2022-12-01T11:14:04.696Z,63.20
2022-12-01T11:16:46.481Z,63.00
2022-12-01T11:19:33.588Z,63.40
2022-12-01T11:22:03.275Z,63.70
2022-12-01T11:24:39.835Z,63.50
2022-12-01T11:27:20.448Z,63.30
2022-12-01T11:29:50.408Z,63.20
2022-12-01T11:32:32.389Z,63.00
2022-12-01T11:35:03.303Z,63.10
2022-12-01T11:37:54.851Z,62.90
2022-12-01T11:40:29.660Z,62.70
2022-12-01T11:43:02.766Z,62.80
2022-12-01T11:45:39.260Z,62.80
2022-12-01T11:48:26.885Z,62.60
2022-12-01T11:51:05.541Z,62.60
2022-12-01T11:53:42.631Z,62.30
2022-12-01T11:56:17.492Z,62.60
2022-12-01T11:58:46.600Z,61.60
2022-12-01T12:01:23.512Z,61.30
2022-12-01T12:04:06.464Z,60.90
2022-12-01T12:06:57.140Z,60.40
2022-12-01T12:09:46.328Z,60.80
2022-12-01T12:12:24.904Z,59.90
2022-12-01T12:15:21.893Z,59.90
2022-12-01T12:18:09.710Z,60.10
2022-12-01T12:20:42.516Z,60.00
2022-12-01T12:23:25.960Z,59.90
2022-12-01T12:26:17.746Z,59.40
2022-12-01T12:29:00.126Z,59.20
2022-12-01T12:31:38.721Z,58.80
2022-12-01T12:34:25.467Z,58.50
2022-12-01T12:37:15.167Z,58.60
2022-12-01T12:39:52.804Z,58.30
2022-12-01T12:42:37.872Z,58.20
2022-12-01T12:45:25.698Z,58.10
2022-12-01T12:48:04.649Z,58.20
2022-12-01T12:51:00.574Z,58.40
2022-12-01T12:53:43.439Z,58.10
2022-12-01T12:56:14.337Z,58.00
2022-12-01T12:58:56.669Z,57.90
2022-12-01T13:01:30.489Z,57.40
2022-12-01T13:04:02.116Z,57.50
2022-12-01T13:06:46.691Z,57.40
2022-12-01T13:09:26.302Z,57.30
2022-12-01T13:12:26.107Z,57.40
2022-12-01T13:15:01.240Z,57.50
2022-12-01T13:17:35.446Z,57.60
2022-12-01T13:20:02.147Z,57.50
2022-12-01T13:22:34.387Z,57.60
2022-12-01T13:25:02.885Z,57.30
2022-12-01T13:27:34.336Z,57.00
2022-12-01T13:30:01.729Z,56.90
2022-12-01T13:32:38.099Z,56.90
2022-12-01T13:35:20.777Z,57.70
2022-12-01T13:37:47.765Z,57.00
2022-12-01T13:40:25.119Z,56.80
2022-12-01T13:42:57.597Z,56.80
2022-12-01T13:45:24.515Z,56.90
2022-12-01T13:47:54.427Z,56.90
2022-12-01T13:50:36.477Z,57.00
2022-12-01T13:53:36.577Z,57.00
2022-12-01T13:56:03.308Z,57.00
2022-12-01T13:58:32.964Z,57.20
2022-12-01T14:01:22.145Z,57.10
2022-12-01T14:04:02.945Z,57.20
2022-12-01T14:06:49.806Z,56.90
2022-12-01T14:09:33.662Z,57.20
2022-12-01T14:12:03.929Z,56.90
2022-12-01T14:14:39.709Z,56.80
2022-12-01T14:17:07.664Z,56.60
2022-12-01T14:19:45.937Z,56.90
2022-12-01T14:22:32.578Z,56.70
2022-12-01T14:25:00.136Z,56.80
2022-12-01T14:27:42.663Z,56.70
2022-12-01T14:30:40.752Z,56.70
2022-12-01T14:33:45.135Z,56.40
2022-12-01T14:36:21.734Z,56.50
2022-12-01T14:39:13.467Z,56.40
2022-12-01T14:41:49.612Z,56.70
2022-12-01T14:44:42.855Z,56.60
2022-12-01T14:47:22.822Z,56.70
2022-12-01T14:50:06.137Z,56.60
2022-12-01T14:52:49.064Z,56.70
2022-12-01T14:55:26.006Z,56.70
2022-12-01T14:58:06.193Z,56.60
2022-12-01T15:00:36.564Z,56.70
2022-12-01T15:03:08.968Z,56.50
2022-12-01T15:05:41.555Z,56.40
2022-12-01T15:08:42.036Z,56.40
2022-12-01T15:11:25.450Z,56.40
2022-12-01T15:13:54.704Z,56.20
2022-12-01T15:16:24.819Z,56.40
2022-12-01T15:18:52.190Z,56.60
2022-12-01T15:21:30.790Z,56.60
2022-12-01T15:24:28.327Z,56.70
2022-12-01T15:27:03.330Z,56.60
2022-12-01T15:29:45.599Z,56.70
2022-12-01T15:32:16.079Z,56.60
2022-12-01T15:34:45.411Z,56.60
2022-12-01T15:37:17.529Z,56.60
2022-12-01T15:39:48.717Z,56.50
2022-12-01T15:42:24.366Z,56.40
2022-12-01T15:45:00.489Z,57.00
2022-12-01T15:47:35.695Z,56.40
2022-12-01T15:50:03.711Z,56.40
2022-12-01T15:52:30.690Z,56.40
2022-12-01T15:55:02.924Z,56.40
2022-12-01T15:57:29.646Z,56.40
2022-12-01T15:59:57.454Z,56.40
2022-12-01T16:02:31.123Z,56.40
2022-12-01T16:05:17.881Z,56.30
2022-12-01T16:08:12.103Z,56.30
2022-12-01T16:10:34.227Z,56.20
2022-12-01T16:13:38.182Z,56.10
2022-12-01T16:16:40.238Z,55.90
2022-12-01T16:19:09.711Z,55.80
2022-12-01T16:21:48.661Z,55.70
2022-12-01T16:24:19.527Z,55.50
2022-12-01T16:26:55.485Z,55.30
2022-12-01T16:29:23.902Z,55.20
2022-12-01T16:32:18.694Z,55.10
2022-12-01T16:34:46.247Z,55.00
2022-12-01T16:37:13.951Z,54.70
2022-12-01T16:39:41.074Z,54.40
2022-12-01T16:42:12.177Z,54.30
2022-12-01T16:44:38.938Z,54.20
2022-12-01T16:47:14.017Z,54.20
2022-12-01T16:49:41.108Z,54.10
2022-12-01T16:52:36.523Z,54.10
2022-12-01T16:54:54.422Z,54.20
2022-12-01T16:57:21.130Z,54.10
2022-12-01T16:59:47.792Z,54.20
2022-12-01T17:02:14.638Z,54.20
2022-12-01T17:04:41.322Z,54.20
2022-12-01T17:07:09.082Z,54.10
2022-12-01T17:09:36.192Z,53.90
2022-12-01T17:12:03.053Z,53.80
2022-12-01T17:14:29.736Z,53.70
2022-12-01T17:16:57.429Z,53.80
2022-12-01T17:19:25.158Z,53.80
2022-12-01T17:21:52.948Z,53.70
2022-12-01T17:24:19.685Z,53.60
2022-12-01T17:26:46.388Z,53.60
2022-12-01T17:29:13.046Z,53.80
2022-12-01T17:31:39.781Z,53.70
2022-12-01T17:34:06.530Z,53.80
2022-12-01T17:36:33.217Z,54.20
2022-12-01T17:38:59.887Z,53.80
2022-12-01T17:41:32.213Z,54.30
2022-12-01T17:44:02.355Z,54.20
2022-12-01T17:46:30.124Z,53.70
2022-12-01T17:48:57.464Z,53.50
2022-12-01T17:51:24.317Z,53.20
2022-12-01T17:53:52.513Z,52.50
2022-12-01T17:56:19.371Z,52.70
2022-12-01T17:58:46.134Z,51.80
2022-12-01T18:01:18.484Z,51.20
2022-12-01T18:03:45.868Z,50.50
2022-12-01T18:06:13.344Z,50.30
2022-12-01T18:08:40.408Z,50.40
2022-12-01T18:11:11.013Z,49.90
2022-12-01T18:13:43.854Z,50.00
2022-12-01T18:16:16.248Z,49.30
2022-12-01T18:18:43.221Z,49.10
2022-12-01T18:21:13.922Z,49.10
2022-12-01T18:23:40.848Z,48.50
2022-12-01T18:26:15.990Z,48.20
2022-12-01T18:28:43.575Z,49.90
2022-12-01T18:31:13.683Z,48.70
2022-12-01T18:33:42.740Z,47.70
2022-12-01T18:36:12.423Z,47.20
2022-12-01T18:38:40.106Z,47.00
2022-12-01T18:41:07.191Z,47.20
2022-12-01T18:43:34.261Z,47.20
2022-12-01T18:46:03.530Z,47.50
2022-12-01T18:48:30.790Z,48.10
2022-12-01T18:51:05.388Z,47.60
2022-12-01T18:53:32.979Z,47.50
2022-12-01T18:56:04.113Z,47.90
2022-12-01T18:58:31.690Z,47.90
2022-12-01T19:00:59.564Z,48.50
2022-12-01T19:03:29.692Z,48.30
2022-12-01T19:05:56.402Z,48.50
2022-12-01T19:08:23.151Z,48.70
2022-12-01T19:11:04.153Z,48.80
2022-12-01T19:13:33.897Z,48.60
2022-12-01T19:16:22.032Z,48.90
2022-12-01T19:18:48.914Z,49.00
2022-12-01T19:21:17.653Z,49.10
2022-12-01T19:23:45.065Z,49.30
2022-12-01T19:26:15.117Z,51.10
2022-12-01T19:28:45.231Z,49.70
2022-12-01T19:31:17.672Z,49.40
2022-12-01T19:33:44.449Z,49.30
2022-12-01T19:36:14.285Z,49.10
2022-12-01T19:38:41.619Z,48.90
2022-12-01T19:41:09.566Z,48.70
2022-12-01T19:43:37.397Z,48.70
2022-12-01T19:46:19.444Z,48.50
2022-12-01T19:48:47.064Z,48.30
2022-12-01T19:51:18.576Z,48.60
2022-12-01T19:53:47.027Z,48.50
2022-12-01T19:56:13.822Z,48.70
2022-12-01T19:58:40.650Z,48.90
2022-12-01T20:01:10.132Z,49.10
2022-12-01T20:03:38.243Z,49.50
2022-12-01T20:06:06.481Z,49.40
2022-12-01T20:08:35.867Z,49.70
2022-12-01T20:11:04.336Z,50.20
2022-12-01T20:13:36.845Z,50.00
2022-12-01T20:16:06.146Z,49.50
2022-12-01T20:18:34.067Z,49.60
2022-12-01T20:21:07.015Z,49.40
2022-12-01T20:23:34.647Z,49.00
2022-12-01T20:26:07.276Z,49.10
2022-12-01T20:28:35.673Z,48.90
2022-12-01T20:31:03.345Z,49.00
2022-12-01T20:33:31.163Z,48.90
2022-12-01T20:35:57.970Z,48.60
2022-12-01T20:38:27.748Z,48.80
2022-12-01T20:40:54.767Z,48.90
2022-12-01T20:43:21.472Z,48.80
2022-12-01T20:45:48.581Z,48.70
2022-12-01T20:48:15.500Z,49.00
2022-12-01T20:50:42.163Z,48.80
2022-12-01T20:53:09.192Z,48.60
2022-12-01T20:55:36.980Z,48.50
2022-12-01T20:58:05.145Z,48.40
2022-12-01T21:00:32.088Z,48.70
2022-12-01T21:02:58.970Z,48.70
2022-12-01T21:05:26.671Z,49.00
2022-12-01T21:07:53.809Z,48.80
2022-12-01T21:10:21.050Z,49.00
2022-12-01T21:13:10.243Z,49.00
2022-12-01T21:15:46.012Z,48.80
2022-12-01T21:18:23.406Z,48.80
2022-12-01T21:20:56.547Z,48.70
2022-12-01T21:23:26.957Z,48.70
2022-12-01T21:25:56.913Z,48.80
2022-12-01T21:28:26.586Z,49.00
2022-12-01T21:31:07.895Z,49.40
2022-12-01T21:33:36.667Z,49.30
2022-12-01T21:36:12.169Z,49.60
2022-12-01T21:38:38.894Z,51.60
2022-12-01T21:41:18.960Z,50.20
2022-12-01T21:43:45.758Z,49.80
2022-12-01T21:46:18.567Z,49.90
2022-12-01T21:48:46.512Z,49.70
2022-12-01T21:51:24.329Z,49.90
2022-12-01T21:53:52.810Z,49.80
2022-12-01T21:56:25.486Z,49.90
2022-12-01T21:58:53.319Z,49.90
2022-12-01T22:01:26.883Z,49.90
2022-12-01T22:04:01.658Z,50.00
2022-12-01T22:06:37.754Z,50.10
2022-12-01T22:09:23.154Z,50.90
2022-12-01T22:11:53.873Z,50.70
2022-12-01T22:14:22.676Z,50.90
2022-12-01T22:16:56.730Z,51.20
2022-12-01T22:19:30.069Z,51.30
2022-12-01T22:22:20.924Z,51.50
2022-12-01T22:24:50.868Z,51.60
2022-12-01T22:27:35.596Z,52.00
2022-12-01T22:30:16.571Z,52.10
2022-12-01T22:32:58.362Z,52.20
2022-12-01T22:35:48.405Z,52.30
2022-12-01T22:38:21.440Z,52.50
2022-12-01T22:40:48.097Z,52.60
2022-12-01T22:43:17.901Z,52.80
2022-12-01T22:46:01.338Z,52.50
2022-12-01T22:48:28.078Z,52.50
2022-12-01T22:50:55.486Z,52.50
2022-12-01T22:53:29.112Z,52.60
2022-12-01T22:55:59.951Z,52.30
2022-12-01T22:58:34.521Z,52.60
2022-12-01T23:01:07.367Z,52.10
2022-12-01T23:03:34.219Z,52.20
2022-12-01T23:06:00.922Z,52.20
2022-12-01T23:08:27.648Z,52.10
2022-12-01T23:10:54.314Z,52.30
2022-12-01T23:13:23.777Z,52.10
2022-12-01T23:15:53.596Z,51.90
2022-12-01T23:18:29.649Z,52.10
2022-12-01T23:20:58.675Z,51.80
2022-12-01T23:23:43.276Z,52.00
2022-12-01T23:26:10.003Z,51.40
2022-12-01T23:28:38.926Z,51.40
2022-12-01T23:31:05.889Z,51.30
2022-12-01T23:33:34.782Z,51.40
2022-12-01T23:36:01.350Z,51.40
2022-12-01T23:38:39.814Z,54.50
2022-12-01T23:41:10.639Z,51.30
2022-12-01T23:43:43.023Z,51.40
2022-12-01T23:46:20.275Z,50.30
2022-12-01T23:48:54.026Z,50.50
2022-12-01T23:51:24.049Z,50.50
2022-12-01T23:53:52.800Z,50.70
2022-12-01T23:56:21.379Z,50.80
2022-12-01T23:58:47.981Z,54.30
